createdAt,value
2022-12-03T00:00:00.738Z,5.00
2022-12-03T00:00:19.551Z,5.00
2022-12-03T00:00:28.948Z,5.00
2022-12-03T00:00:38.346Z,5.00
2022-12-03T00:00:47.764Z,5.00
2022-12-03T00:00:57.169Z,5.00
2022-12-03T00:01:06.567Z,5.00
2022-12-03T00:01:15.998Z,5.00
2022-12-03T00:01:25.399Z,5.00
2022-12-03T00:01:34.805Z,5.00
2022-12-03T00:01:44.188Z,5.00
2022-12-03T00:01:53.590Z,5.00
2022-12-03T00:02:03.034Z,5.00
2022-12-03T00:02:12.496Z,5.00
2022-12-03T00:02:21.885Z,5.00
2022-12-03T00:02:31.358Z,5.00
2022-12-03T00:02:40.848Z,5.00
2022-12-03T00:02:59.559Z,5.00
2022-12-03T00:03:08.944Z,5.00
2022-12-03T00:03:18.295Z,5.00
2022-12-03T00:03:27.782Z,5.00
2022-12-03T00:03:37.211Z,5.00
2022-12-03T00:03:46.549Z,5.00
2022-12-03T00:03:56.025Z,5.00
2022-12-03T00:04:05.252Z,5.00
2022-12-03T00:04:14.561Z,5.00
2022-12-03T00:04:23.953Z,5.00
2022-12-03T00:04:33.352Z,5.00
2022-12-03T00:04:42.750Z,5.00
2022-12-03T00:04:52.489Z,5.00
2022-12-03T00:05:01.555Z,5.00
2022-12-03T00:05:10.966Z,5.00
2022-12-03T00:05:20.351Z,5.00
2022-12-03T00:05:41.920Z,5.00
2022-12-03T00:05:49.367Z,5.10
2022-12-03T00:05:57.990Z,5.10
2022-12-03T00:06:07.519Z,5.10
2022-12-03T00:06:16.928Z,5.10
2022-12-03T00:06:30.140Z,5.10
2022-12-03T00:06:35.713Z,5.10
2022-12-03T00:06:45.100Z,5.10
2022-12-03T00:06:54.507Z,5.10
2022-12-03T00:07:03.918Z,5.10
2022-12-03T00:07:13.347Z,5.10
2022-12-03T00:07:22.755Z,5.10
2022-12-03T00:07:32.218Z,5.10
2022-12-03T00:07:41.647Z,5.10
2022-12-03T00:07:50.998Z,5.10
2022-12-03T00:08:00.475Z,5.10
2022-12-03T00:08:19.168Z,5.10
2022-12-03T00:08:28.560Z,5.10
2022-12-03T00:08:37.949Z,5.10
2022-12-03T00:08:47.353Z,5.10
2022-12-03T00:08:56.736Z,5.10
2022-12-03T00:09:06.133Z,5.10
2022-12-03T00:09:15.521Z,5.10
2022-12-03T00:09:24.914Z,5.10
2022-12-03T00:09:34.308Z,5.10
2022-12-03T00:09:43.705Z,5.10
2022-12-03T00:09:53.112Z,5.20
2022-12-03T00:10:02.518Z,5.10
2022-12-03T00:10:11.904Z,5.10
2022-12-03T00:10:21.320Z,5.10
2022-12-03T00:10:30.702Z,5.10
2022-12-03T00:10:49.476Z,5.10
2022-12-03T00:10:58.940Z,5.10
2022-12-03T00:11:08.303Z,5.10
2022-12-03T00:11:17.689Z,5.10
2022-12-03T00:11:27.111Z,5.20
2022-12-03T00:11:36.528Z,5.10
2022-12-03T00:11:45.927Z,5.10
2022-12-03T00:11:55.318Z,5.10
2022-12-03T00:12:04.698Z,5.10
2022-12-03T00:12:14.087Z,5.10
2022-12-03T00:12:23.500Z,5.10
2022-12-03T00:12:32.923Z,5.20
2022-12-03T00:12:42.337Z,5.10
2022-12-03T00:12:51.723Z,5.20
2022-12-03T00:13:01.113Z,5.10
2022-12-03T00:13:10.552Z,5.20
2022-12-03T00:13:29.328Z,5.20
2022-12-03T00:13:38.702Z,5.20
2022-12-03T00:13:48.095Z,5.20
2022-12-03T00:13:57.494Z,5.20
2022-12-03T00:14:06.889Z,5.20
2022-12-03T00:14:16.292Z,5.20
2022-12-03T00:14:25.677Z,5.20
2022-12-03T00:14:37.763Z,5.20
2022-12-03T00:14:45.099Z,5.20
2022-12-03T00:14:54.165Z,5.20
2022-12-03T00:15:03.244Z,5.20
2022-12-03T00:15:12.648Z,5.20
2022-12-03T00:15:22.084Z,5.20
2022-12-03T00:15:31.512Z,5.20
2022-12-03T00:15:40.913Z,5.10
2022-12-03T00:15:50.332Z,5.20
2022-12-03T00:16:09.150Z,5.20
2022-12-03T00:16:18.558Z,5.20
2022-12-03T00:16:27.937Z,5.10
2022-12-03T00:16:37.267Z,5.20
2022-12-03T00:16:46.669Z,5.10
2022-12-03T00:16:56.061Z,5.20
2022-12-03T00:17:05.454Z,5.10
2022-12-03T00:17:14.851Z,5.20
2022-12-03T00:17:24.250Z,5.20
2022-12-03T00:17:33.657Z,5.10
2022-12-03T00:17:43.057Z,5.20
2022-12-03T00:17:52.496Z,5.20
2022-12-03T00:18:01.930Z,5.20
2022-12-03T00:18:11.352Z,5.20
2022-12-03T00:18:20.753Z,5.20
2022-12-03T00:18:39.554Z,5.20
2022-12-03T00:18:48.959Z,5.20
2022-12-03T00:18:58.345Z,5.20
2022-12-03T00:19:07.837Z,5.20
2022-12-03T00:19:17.173Z,5.20
2022-12-03T00:19:26.548Z,5.20
2022-12-03T00:19:35.972Z,5.20
2022-12-03T00:19:45.384Z,5.20
2022-12-03T00:19:54.787Z,5.20
2022-12-03T00:20:04.176Z,5.20
2022-12-03T00:20:13.625Z,5.20
2022-12-03T00:20:23.027Z,5.20
2022-12-03T00:20:32.411Z,5.20
2022-12-03T00:20:41.790Z,5.20
2022-12-03T00:20:51.202Z,5.20
2022-12-03T00:21:00.598Z,5.20
2022-12-03T00:21:19.397Z,5.20
2022-12-03T00:21:28.780Z,5.20
2022-12-03T00:21:38.200Z,5.30
2022-12-03T00:21:47.599Z,5.20
2022-12-03T00:21:56.985Z,5.20
2022-12-03T00:22:06.408Z,5.20
2022-12-03T00:22:15.831Z,5.20
2022-12-03T00:22:25.243Z,5.30
2022-12-03T00:22:34.680Z,5.20
2022-12-03T00:22:44.088Z,5.30
2022-12-03T00:22:53.494Z,5.20
2022-12-03T00:23:02.898Z,5.20
2022-12-03T00:23:12.314Z,5.20
2022-12-03T00:23:21.757Z,5.20
2022-12-03T00:23:31.202Z,5.20
2022-12-03T00:23:42.473Z,5.20
2022-12-03T00:23:59.430Z,5.20
2022-12-03T00:24:08.840Z,5.20
2022-12-03T00:24:18.242Z,5.20
2022-12-03T00:24:27.637Z,5.20
2022-12-03T00:24:37.037Z,5.10
2022-12-03T00:24:46.456Z,5.10
2022-12-03T00:24:56.137Z,5.10
2022-12-03T00:25:05.253Z,5.10
2022-12-03T00:25:14.658Z,5.10
2022-12-03T00:25:24.087Z,5.00
2022-12-03T00:25:33.510Z,5.00
2022-12-03T00:25:42.916Z,5.00
2022-12-03T00:25:52.296Z,5.00
2022-12-03T00:26:01.728Z,4.90
2022-12-03T00:26:11.098Z,4.90
2022-12-03T00:26:20.499Z,4.90
2022-12-03T00:26:39.299Z,4.80
2022-12-03T00:26:48.701Z,4.80
2022-12-03T00:26:58.099Z,4.80
2022-12-03T00:27:07.496Z,4.80
2022-12-03T00:27:16.904Z,4.70
2022-12-03T00:27:26.313Z,4.70
2022-12-03T00:27:35.723Z,4.70
2022-12-03T00:27:45.120Z,4.70
2022-12-03T00:27:54.525Z,4.60
2022-12-03T00:28:03.942Z,4.60
2022-12-03T00:28:13.374Z,4.60
2022-12-03T00:28:22.794Z,4.60
2022-12-03T00:28:32.172Z,4.60
2022-12-03T00:28:41.576Z,4.50
2022-12-03T00:28:50.988Z,4.50
2022-12-03T00:29:00.412Z,4.50
2022-12-03T00:29:19.193Z,4.50
2022-12-03T00:29:28.596Z,4.40
2022-12-03T00:29:38.043Z,4.40
2022-12-03T00:29:47.434Z,4.40
2022-12-03T00:29:56.819Z,4.40
2022-12-03T00:30:06.225Z,4.30
2022-12-03T00:30:15.638Z,4.30
2022-12-03T00:30:25.043Z,4.30
2022-12-03T00:30:34.440Z,4.30
2022-12-03T00:30:43.906Z,4.30
2022-12-03T00:30:53.417Z,4.20
2022-12-03T00:31:02.758Z,4.30
2022-12-03T00:31:12.136Z,4.20
2022-12-03T00:31:21.715Z,4.20
2022-12-03T00:31:31.039Z,4.20
2022-12-03T00:31:40.426Z,4.10
2022-12-03T00:31:59.195Z,4.10
2022-12-03T00:32:08.624Z,4.10
2022-12-03T00:32:18.044Z,4.10
2022-12-03T00:32:27.441Z,4.00
2022-12-03T00:32:36.881Z,4.00
2022-12-03T00:32:46.304Z,4.00
2022-12-03T00:32:55.727Z,4.00
2022-12-03T00:33:05.114Z,4.00
2022-12-03T00:33:14.528Z,4.00
2022-12-03T00:33:23.939Z,4.00
2022-12-03T00:33:33.336Z,3.80
2022-12-03T00:33:42.744Z,3.90
2022-12-03T00:33:52.162Z,3.90
2022-12-03T00:34:01.568Z,3.90
2022-12-03T00:34:10.957Z,3.90
2022-12-03T00:34:20.358Z,3.90
2022-12-03T00:34:39.172Z,3.90
2022-12-03T00:34:48.596Z,3.80
2022-12-03T00:34:57.978Z,3.80
2022-12-03T00:35:07.377Z,3.80
2022-12-03T00:35:16.811Z,3.80
2022-12-03T00:35:26.219Z,3.80
2022-12-03T00:35:35.619Z,3.80
2022-12-03T00:35:44.995Z,3.80
2022-12-03T00:35:54.406Z,3.80
2022-12-03T00:36:03.800Z,3.80
2022-12-03T00:36:13.198Z,3.80
2022-12-03T00:36:22.592Z,3.70
2022-12-03T00:36:31.983Z,3.70
2022-12-03T00:36:41.384Z,3.70
2022-12-03T00:36:50.784Z,3.80
2022-12-03T00:37:09.583Z,3.70
2022-12-03T00:37:18.985Z,3.70
2022-12-03T00:37:28.379Z,3.70
2022-12-03T00:37:37.799Z,3.70
2022-12-03T00:37:47.196Z,3.70
2022-12-03T00:37:56.577Z,3.80
2022-12-03T00:38:05.963Z,3.80
2022-12-03T00:38:15.346Z,3.80
2022-12-03T00:38:24.760Z,3.80
2022-12-03T00:38:34.155Z,3.80
2022-12-03T00:38:43.538Z,3.80
2022-12-03T00:38:52.940Z,3.80
2022-12-03T00:39:02.321Z,3.80
2022-12-03T00:39:11.716Z,3.90
2022-12-03T00:39:21.123Z,3.90
2022-12-03T00:39:30.512Z,3.90
2022-12-03T00:39:49.301Z,4.00
2022-12-03T00:39:58.706Z,4.00
2022-12-03T00:40:08.119Z,4.00
2022-12-03T00:40:17.532Z,4.00
2022-12-03T00:40:26.935Z,4.00
2022-12-03T00:40:36.363Z,4.10
2022-12-03T00:40:45.754Z,4.10
2022-12-03T00:40:55.177Z,4.10
2022-12-03T00:41:04.588Z,4.10
2022-12-03T00:41:13.969Z,4.20
2022-12-03T00:41:23.371Z,4.20
2022-12-03T00:41:32.790Z,4.20
2022-12-03T00:41:42.169Z,4.20
2022-12-03T00:41:51.533Z,4.20
2022-12-03T00:42:00.929Z,4.30
2022-12-03T00:42:10.309Z,4.30
2022-12-03T00:42:29.141Z,4.30
2022-12-03T00:42:38.555Z,4.40
2022-12-03T00:42:47.952Z,4.40
2022-12-03T00:42:57.344Z,4.40
2022-12-03T00:43:06.747Z,4.40
2022-12-03T00:43:16.135Z,4.40
2022-12-03T00:43:25.527Z,4.50
2022-12-03T00:43:34.944Z,4.40
2022-12-03T00:43:44.472Z,4.50
2022-12-03T00:43:53.849Z,4.50
2022-12-03T00:44:03.274Z,4.50
2022-12-03T00:44:12.665Z,4.50
2022-12-03T00:44:22.063Z,4.60
2022-12-03T00:44:31.456Z,4.60
2022-12-03T00:44:40.853Z,4.60
2022-12-03T00:44:50.420Z,4.60
2022-12-03T00:45:09.081Z,4.60
2022-12-03T00:45:18.473Z,4.60
2022-12-03T00:45:27.843Z,4.70
2022-12-03T00:45:37.247Z,4.70
2022-12-03T00:45:46.660Z,4.70
2022-12-03T00:45:56.459Z,4.70
2022-12-03T00:46:05.708Z,4.70
2022-12-03T00:46:20.913Z,4.70
2022-12-03T00:46:24.500Z,4.80
2022-12-03T00:46:33.903Z,4.80
2022-12-03T00:46:43.252Z,4.80
2022-12-03T00:46:52.683Z,4.80
2022-12-03T00:47:02.066Z,4.80
2022-12-03T00:47:11.561Z,4.80
2022-12-03T00:47:20.839Z,4.80
2022-12-03T00:47:30.226Z,4.80
2022-12-03T00:47:49.046Z,4.80
2022-12-03T00:47:58.460Z,4.80
2022-12-03T00:48:07.840Z,4.90
2022-12-03T00:48:17.207Z,4.90
2022-12-03T00:48:26.598Z,4.90
2022-12-03T00:48:35.990Z,4.90
2022-12-03T00:48:45.390Z,5.00
2022-12-03T00:48:54.805Z,5.00
2022-12-03T00:49:04.199Z,4.90
2022-12-03T00:49:13.612Z,5.00
2022-12-03T00:49:23.026Z,5.00
2022-12-03T00:49:32.472Z,5.00
2022-12-03T00:49:41.880Z,5.00
2022-12-03T00:49:51.362Z,5.00
2022-12-03T00:50:00.756Z,5.00
2022-12-03T00:50:19.539Z,5.00
2022-12-03T00:50:28.971Z,5.00
2022-12-03T00:50:38.402Z,5.00
2022-12-03T00:50:47.799Z,5.00
2022-12-03T00:50:57.213Z,5.00
2022-12-03T00:51:06.607Z,5.00
2022-12-03T00:51:16.020Z,5.00
2022-12-03T00:51:25.466Z,5.00
2022-12-03T00:51:34.859Z,5.00
2022-12-03T00:51:44.278Z,5.00
2022-12-03T00:51:53.711Z,5.10
2022-12-03T00:52:03.138Z,5.10
2022-12-03T00:52:12.557Z,5.10
2022-12-03T00:52:21.983Z,5.10
2022-12-03T00:52:31.761Z,5.10
2022-12-03T00:52:41.206Z,5.10
2022-12-03T00:52:50.604Z,5.00
2022-12-03T00:53:09.479Z,5.00
2022-12-03T00:53:18.881Z,5.00
2022-12-03T00:53:28.302Z,5.00
2022-12-03T00:53:37.726Z,5.00
2022-12-03T00:53:47.159Z,4.90
2022-12-03T00:53:56.570Z,4.90
2022-12-03T00:54:05.969Z,4.90
2022-12-03T00:54:15.375Z,4.80
2022-12-03T00:54:30.206Z,4.90
2022-12-03T00:54:34.193Z,4.80
2022-12-03T00:54:43.595Z,4.80
2022-12-03T00:54:53.412Z,4.80
2022-12-03T00:55:02.392Z,4.80
2022-12-03T00:55:11.785Z,4.70
2022-12-03T00:55:21.178Z,4.70
2022-12-03T00:55:30.594Z,4.70
2022-12-03T00:55:49.406Z,4.70
2022-12-03T00:55:58.804Z,4.60
2022-12-03T00:56:08.226Z,4.60
2022-12-03T00:56:17.623Z,4.60
2022-12-03T00:56:27.047Z,4.60
2022-12-03T00:56:36.473Z,4.50
2022-12-03T00:56:45.897Z,4.50
2022-12-03T00:56:55.294Z,4.50
2022-12-03T00:57:04.695Z,4.40
2022-12-03T00:57:14.090Z,4.40
2022-12-03T00:57:23.509Z,4.40
2022-12-03T00:57:32.921Z,4.40
2022-12-03T00:57:42.357Z,4.40
2022-12-03T00:57:51.739Z,4.30
2022-12-03T00:58:01.148Z,4.30
2022-12-03T00:58:10.544Z,4.30
2022-12-03T00:58:29.394Z,4.20
2022-12-03T00:58:38.791Z,4.20
2022-12-03T00:58:48.199Z,4.20
2022-12-03T00:58:57.610Z,4.20
2022-12-03T00:59:07.037Z,4.10
2022-12-03T00:59:16.459Z,4.10
2022-12-03T00:59:25.887Z,4.10
2022-12-03T00:59:35.289Z,4.10
2022-12-03T00:59:44.701Z,4.00
2022-12-03T00:59:54.105Z,4.00
2022-12-03T01:00:03.500Z,4.00
2022-12-03T01:00:12.914Z,4.00
2022-12-03T01:00:22.312Z,4.00
2022-12-03T01:00:31.710Z,4.00
2022-12-03T01:00:41.198Z,3.90
2022-12-03T01:00:50.618Z,3.90
2022-12-03T01:01:09.442Z,3.90
2022-12-03T01:01:18.924Z,3.90
2022-12-03T01:01:28.315Z,3.90
2022-12-03T01:01:37.688Z,3.90
2022-12-03T01:01:47.078Z,3.90
2022-12-03T01:01:56.591Z,3.90
2022-12-03T01:02:05.996Z,3.80
2022-12-03T01:02:15.460Z,3.90
2022-12-03T01:02:24.686Z,3.80
2022-12-03T01:02:34.093Z,3.80
2022-12-03T01:02:43.540Z,3.80
2022-12-03T01:02:52.933Z,3.80
2022-12-03T01:03:02.332Z,3.80
2022-12-03T01:03:11.772Z,3.80
2022-12-03T01:03:21.177Z,3.90
2022-12-03T01:03:30.590Z,3.70
2022-12-03T01:03:49.383Z,3.70
2022-12-03T01:03:58.800Z,3.70
2022-12-03T01:04:08.318Z,3.70
2022-12-03T01:04:17.713Z,3.70
2022-12-03T01:04:27.135Z,3.70
2022-12-03T01:04:36.506Z,3.70
2022-12-03T01:04:45.882Z,3.70
2022-12-03T01:04:55.663Z,3.70
2022-12-03T01:05:04.710Z,3.70
2022-12-03T01:05:14.197Z,3.60
2022-12-03T01:05:23.502Z,3.60
2022-12-03T01:05:32.880Z,3.70
2022-12-03T01:05:42.269Z,3.60
2022-12-03T01:05:51.667Z,3.60
2022-12-03T01:06:01.084Z,3.60
2022-12-03T01:06:10.488Z,3.60
2022-12-03T01:06:29.304Z,3.60
2022-12-03T01:06:38.708Z,3.60
2022-12-03T01:06:48.121Z,3.60
2022-12-03T01:06:57.543Z,3.60
2022-12-03T01:07:06.948Z,3.60
2022-12-03T01:07:16.374Z,3.60
2022-12-03T01:07:25.863Z,3.60
2022-12-03T01:07:35.244Z,3.60
2022-12-03T01:07:44.767Z,3.50
2022-12-03T01:07:54.102Z,3.60
2022-12-03T01:08:03.621Z,3.60
2022-12-03T01:08:12.939Z,3.60
2022-12-03T01:08:22.264Z,3.50
2022-12-03T01:08:31.669Z,3.50
2022-12-03T01:08:41.143Z,3.50
2022-12-03T01:08:50.547Z,3.50
2022-12-03T01:09:09.351Z,3.50
2022-12-03T01:09:18.756Z,3.50
2022-12-03T01:09:28.171Z,3.50
2022-12-03T01:09:37.583Z,3.50
2022-12-03T01:09:46.983Z,3.50
2022-12-03T01:09:56.401Z,3.50
2022-12-03T01:10:05.811Z,3.50
2022-12-03T01:10:15.208Z,3.50
2022-12-03T01:10:24.603Z,3.50
2022-12-03T01:10:33.997Z,3.50
2022-12-03T01:10:43.391Z,3.60
2022-12-03T01:10:52.808Z,3.50
2022-12-03T01:11:02.208Z,3.50
2022-12-03T01:11:11.640Z,3.60
2022-12-03T01:11:21.038Z,3.50
2022-12-03T01:11:30.436Z,3.50
2022-12-03T01:11:49.240Z,3.50
2022-12-03T01:11:58.621Z,3.50
2022-12-03T01:12:08.040Z,3.60
2022-12-03T01:12:17.447Z,3.50
2022-12-03T01:12:26.842Z,3.50
2022-12-03T01:12:36.255Z,3.50
2022-12-03T01:12:45.684Z,3.60
2022-12-03T01:12:55.082Z,3.60
2022-12-03T01:13:04.528Z,3.50
2022-12-03T01:13:13.926Z,3.50
2022-12-03T01:13:23.321Z,3.50
2022-12-03T01:13:32.729Z,3.50
2022-12-03T01:13:42.146Z,3.50
2022-12-03T01:13:51.565Z,3.60
2022-12-03T01:14:00.974Z,3.50
2022-12-03T01:14:10.396Z,3.50
2022-12-03T01:14:29.192Z,3.50
2022-12-03T01:14:38.578Z,3.50
2022-12-03T01:14:47.977Z,3.50
2022-12-03T01:14:57.411Z,3.50
2022-12-03T01:15:06.811Z,3.50
2022-12-03T01:15:16.228Z,3.50
2022-12-03T01:15:25.643Z,3.50
2022-12-03T01:15:35.159Z,3.50
2022-12-03T01:15:44.536Z,3.50
2022-12-03T01:15:53.920Z,3.50
2022-12-03T01:16:03.323Z,3.50
2022-12-03T01:16:12.764Z,3.50
2022-12-03T01:16:22.181Z,3.50
2022-12-03T01:16:31.593Z,3.50
2022-12-03T01:16:40.941Z,3.50
2022-12-03T01:16:50.360Z,3.50
2022-12-03T01:17:09.222Z,3.50
2022-12-03T01:17:18.605Z,3.50
2022-12-03T01:17:27.977Z,3.50
2022-12-03T01:17:37.343Z,3.40
2022-12-03T01:17:46.766Z,3.50
2022-12-03T01:17:56.157Z,3.50
2022-12-03T01:18:05.557Z,3.50
2022-12-03T01:18:14.964Z,3.50
2022-12-03T01:18:24.337Z,3.50
2022-12-03T01:18:33.774Z,3.50
2022-12-03T01:18:43.183Z,3.50
2022-12-03T01:18:52.564Z,3.50
2022-12-03T01:19:01.984Z,3.50
2022-12-03T01:19:11.391Z,3.50
2022-12-03T01:19:20.794Z,3.50
2022-12-03T01:19:43.559Z,3.50
2022-12-03T01:19:48.974Z,3.50
2022-12-03T01:19:58.358Z,3.60
2022-12-03T01:20:07.755Z,3.60
2022-12-03T01:20:17.164Z,3.60
2022-12-03T01:20:26.556Z,3.60
2022-12-03T01:20:35.940Z,3.70
2022-12-03T01:20:45.344Z,3.70
2022-12-03T01:20:54.733Z,3.70
2022-12-03T01:21:04.132Z,3.70
2022-12-03T01:21:13.535Z,3.70
2022-12-03T01:21:22.908Z,3.80
2022-12-03T01:21:32.299Z,3.80
2022-12-03T01:21:41.714Z,3.80
2022-12-03T01:21:51.100Z,3.80
2022-12-03T01:22:00.519Z,3.90
2022-12-03T01:22:19.380Z,3.90
2022-12-03T01:22:28.779Z,3.90
2022-12-03T01:22:38.172Z,4.00
2022-12-03T01:22:47.614Z,4.00
2022-12-03T01:22:57.015Z,4.00
2022-12-03T01:23:06.438Z,4.00
2022-12-03T01:23:15.842Z,4.10
2022-12-03T01:23:25.263Z,4.10
2022-12-03T01:23:34.675Z,4.10
2022-12-03T01:23:44.093Z,4.10
2022-12-03T01:23:53.513Z,4.20
2022-12-03T01:24:02.927Z,4.20
2022-12-03T01:24:12.349Z,4.20
2022-12-03T01:24:21.740Z,4.20
2022-12-03T01:24:31.122Z,4.20
2022-12-03T01:24:40.533Z,4.20
2022-12-03T01:24:59.345Z,4.20
2022-12-03T01:25:08.741Z,4.30
2022-12-03T01:25:18.151Z,4.30
2022-12-03T01:25:27.559Z,4.30
2022-12-03T01:25:36.950Z,4.30
2022-12-03T01:25:46.327Z,4.30
2022-12-03T01:25:55.710Z,4.30
2022-12-03T01:26:05.124Z,4.30
2022-12-03T01:26:14.538Z,4.30
2022-12-03T01:26:23.970Z,4.30
2022-12-03T01:26:33.326Z,4.30
2022-12-03T01:26:42.737Z,4.30
2022-12-03T01:26:52.149Z,4.30
2022-12-03T01:27:01.618Z,4.30
2022-12-03T01:27:11.021Z,4.30
2022-12-03T01:27:20.466Z,4.30
2022-12-03T01:27:39.274Z,4.20
2022-12-03T01:27:48.713Z,4.20
2022-12-03T01:27:58.116Z,4.20
2022-12-03T01:28:07.510Z,4.20
2022-12-03T01:28:16.895Z,4.20
2022-12-03T01:28:26.434Z,4.20
2022-12-03T01:28:35.963Z,4.20
2022-12-03T01:28:45.356Z,4.20
2022-12-03T01:28:54.786Z,4.20
2022-12-03T01:29:04.235Z,4.10
2022-12-03T01:29:13.617Z,4.10
2022-12-03T01:29:23.026Z,4.10
2022-12-03T01:29:32.430Z,4.10
2022-12-03T01:29:41.921Z,4.10
2022-12-03T01:29:51.335Z,4.10
2022-12-03T01:30:00.734Z,4.10
2022-12-03T01:30:19.544Z,4.00
2022-12-03T01:30:28.988Z,4.00
2022-12-03T01:30:38.382Z,4.00
2022-12-03T01:30:47.807Z,4.00
2022-12-03T01:30:57.235Z,4.00
2022-12-03T01:31:06.614Z,4.00
2022-12-03T01:31:16.111Z,4.00
2022-12-03T01:31:25.627Z,4.00
2022-12-03T01:31:34.856Z,3.90
2022-12-03T01:31:44.290Z,3.90
2022-12-03T01:31:53.633Z,3.90
2022-12-03T01:32:03.288Z,3.90
2022-12-03T01:32:12.686Z,3.90
2022-12-03T01:32:22.108Z,3.90
2022-12-03T01:32:31.493Z,3.90
2022-12-03T01:32:40.888Z,3.90
2022-12-03T01:32:50.357Z,3.90
2022-12-03T01:33:09.175Z,3.80
2022-12-03T01:33:18.580Z,3.80
2022-12-03T01:33:27.989Z,3.80
2022-12-03T01:33:37.370Z,3.80
2022-12-03T01:33:46.779Z,3.80
2022-12-03T01:33:56.183Z,3.80
2022-12-03T01:34:05.612Z,3.80
2022-12-03T01:34:14.999Z,3.80
2022-12-03T01:34:24.383Z,3.80
2022-12-03T01:34:33.796Z,3.80
2022-12-03T01:34:43.194Z,3.80
2022-12-03T01:34:53.014Z,3.80
2022-12-03T01:35:02.000Z,3.80
2022-12-03T01:35:11.433Z,3.80
2022-12-03T01:35:20.885Z,3.80
2022-12-03T01:35:30.285Z,3.80
2022-12-03T01:35:49.083Z,3.70
2022-12-03T01:35:58.480Z,3.70
2022-12-03T01:36:07.881Z,3.70
2022-12-03T01:36:17.270Z,3.70
2022-12-03T01:36:26.706Z,3.70
2022-12-03T01:36:36.119Z,3.70
2022-12-03T01:36:45.525Z,3.70
2022-12-03T01:36:54.918Z,3.70
2022-12-03T01:37:04.314Z,3.70
2022-12-03T01:37:13.761Z,3.70
2022-12-03T01:37:23.164Z,3.70
2022-12-03T01:37:32.560Z,3.70
2022-12-03T01:37:41.957Z,3.60
2022-12-03T01:37:51.420Z,3.70
2022-12-03T01:38:00.896Z,3.70
2022-12-03T01:38:10.305Z,3.60
2022-12-03T01:38:29.129Z,3.60
2022-12-03T01:38:38.552Z,3.60
2022-12-03T01:38:47.951Z,3.60
2022-12-03T01:38:57.374Z,3.60
2022-12-03T01:39:06.781Z,3.60
2022-12-03T01:39:16.181Z,3.60
2022-12-03T01:39:25.591Z,3.60
2022-12-03T01:39:34.993Z,3.60
2022-12-03T01:39:44.392Z,3.50
2022-12-03T01:39:53.798Z,3.50
2022-12-03T01:40:03.217Z,3.50
2022-12-03T01:40:12.674Z,3.50
2022-12-03T01:40:22.095Z,3.50
2022-12-03T01:40:31.495Z,3.50
2022-12-03T01:40:40.890Z,3.50
2022-12-03T01:40:50.299Z,3.50
2022-12-03T01:41:11.931Z,3.50
2022-12-03T01:41:18.520Z,3.50
2022-12-03T01:41:28.018Z,3.50
2022-12-03T01:41:37.372Z,3.50
2022-12-03T01:41:46.761Z,3.50
2022-12-03T01:41:56.207Z,3.50
2022-12-03T01:42:05.604Z,3.50
2022-12-03T01:42:15.005Z,3.50
2022-12-03T01:42:24.412Z,3.50
2022-12-03T01:42:33.808Z,3.50
2022-12-03T01:42:43.215Z,3.50
2022-12-03T01:42:52.648Z,3.50
2022-12-03T01:43:02.076Z,3.50
2022-12-03T01:43:11.526Z,3.50
2022-12-03T01:43:20.919Z,3.50
2022-12-03T01:43:30.336Z,3.50
2022-12-03T01:43:49.151Z,3.60
2022-12-03T01:43:58.554Z,3.50
2022-12-03T01:44:07.944Z,3.50
2022-12-03T01:44:17.353Z,3.50
2022-12-03T01:44:26.745Z,3.40
2022-12-03T01:44:36.123Z,3.50
2022-12-03T01:44:45.515Z,3.50
2022-12-03T01:44:55.253Z,3.50
2022-12-03T01:45:04.288Z,3.50
2022-12-03T01:45:13.675Z,3.50
2022-12-03T01:45:23.120Z,3.50
2022-12-03T01:45:32.571Z,3.50
2022-12-03T01:45:41.960Z,3.50
2022-12-03T01:45:51.428Z,3.50
2022-12-03T01:46:00.805Z,3.50
2022-12-03T01:46:10.280Z,3.50
2022-12-03T01:46:29.073Z,3.50
2022-12-03T01:46:38.460Z,3.60
2022-12-03T01:46:47.880Z,3.60
2022-12-03T01:46:57.255Z,3.60
2022-12-03T01:47:06.660Z,3.60
2022-12-03T01:47:16.003Z,3.70
2022-12-03T01:47:25.390Z,3.70
2022-12-03T01:47:34.817Z,3.70
2022-12-03T01:47:44.201Z,3.70
2022-12-03T01:47:53.629Z,3.80
2022-12-03T01:48:03.007Z,3.80
2022-12-03T01:48:12.405Z,3.80
2022-12-03T01:48:21.807Z,3.80
2022-12-03T01:48:31.186Z,3.90
2022-12-03T01:48:40.586Z,3.90
2022-12-03T01:48:59.400Z,3.90
2022-12-03T01:49:08.817Z,4.00
2022-12-03T01:49:18.205Z,4.00
2022-12-03T01:49:27.618Z,4.00
2022-12-03T01:49:37.036Z,4.00
2022-12-03T01:49:46.431Z,4.00
2022-12-03T01:49:55.830Z,4.10
2022-12-03T01:50:05.304Z,4.10
2022-12-03T01:50:14.693Z,4.10
2022-12-03T01:50:24.101Z,4.10
2022-12-03T01:50:33.639Z,4.20
2022-12-03T01:50:42.920Z,4.20
2022-12-03T01:50:52.294Z,4.20
2022-12-03T01:51:01.708Z,4.20
2022-12-03T01:51:11.112Z,4.20
2022-12-03T01:51:20.584Z,4.20
2022-12-03T01:51:39.396Z,4.30
2022-12-03T01:51:48.792Z,4.30
2022-12-03T01:51:58.164Z,4.40
2022-12-03T01:52:07.552Z,4.40
2022-12-03T01:52:16.991Z,4.40
2022-12-03T01:52:26.382Z,4.40
2022-12-03T01:52:35.798Z,4.50
2022-12-03T01:52:45.186Z,4.50
2022-12-03T01:52:54.607Z,4.50
2022-12-03T01:53:04.013Z,4.50
2022-12-03T01:53:13.397Z,4.50
2022-12-03T01:53:22.788Z,4.60
2022-12-03T01:53:32.164Z,4.60
2022-12-03T01:53:41.559Z,4.60
2022-12-03T01:53:50.950Z,4.60
2022-12-03T01:54:00.361Z,4.60
2022-12-03T01:54:19.229Z,4.60
2022-12-03T01:54:28.640Z,4.60
2022-12-03T01:54:38.031Z,4.70
2022-12-03T01:54:47.430Z,4.70
2022-12-03T01:54:56.865Z,4.70
2022-12-03T01:55:06.248Z,4.70
2022-12-03T01:55:15.622Z,4.70
2022-12-03T01:55:25.002Z,4.70
2022-12-03T01:55:34.412Z,4.70
2022-12-03T01:55:48.404Z,4.70
2022-12-03T01:55:53.231Z,4.80
2022-12-03T01:56:02.638Z,4.80
2022-12-03T01:56:12.097Z,4.70
2022-12-03T01:56:21.508Z,4.80
2022-12-03T01:56:30.949Z,4.80
2022-12-03T01:56:40.329Z,4.80
2022-12-03T01:56:59.142Z,4.80
2022-12-03T01:57:08.547Z,4.80
2022-12-03T01:57:17.934Z,4.80
2022-12-03T01:57:27.313Z,4.80
2022-12-03T01:57:36.706Z,4.80
2022-12-03T01:57:46.109Z,4.90
2022-12-03T01:57:55.520Z,4.90
2022-12-03T01:58:04.970Z,4.90
2022-12-03T01:58:14.331Z,4.90
2022-12-03T01:58:23.737Z,4.90
2022-12-03T01:58:33.143Z,4.90
2022-12-03T01:58:42.531Z,4.90
2022-12-03T01:58:51.919Z,4.90
2022-12-03T01:59:01.332Z,4.90
2022-12-03T01:59:10.710Z,4.90
2022-12-03T01:59:29.512Z,5.00
2022-12-03T01:59:38.917Z,4.90
2022-12-03T01:59:48.305Z,5.00
2022-12-03T01:59:57.700Z,5.00
2022-12-03T02:00:07.088Z,5.00
2022-12-03T02:00:16.494Z,5.00
2022-12-03T02:00:25.883Z,5.00
2022-12-03T02:00:35.270Z,5.00
2022-12-03T02:00:44.734Z,5.00
2022-12-03T02:00:54.150Z,5.00
2022-12-03T02:01:03.617Z,5.10
2022-12-03T02:01:13.044Z,5.00
2022-12-03T02:01:22.478Z,5.10
2022-12-03T02:01:31.960Z,5.10
2022-12-03T02:01:41.537Z,5.10
2022-12-03T02:01:50.931Z,5.30
2022-12-03T02:02:00.318Z,5.10
2022-12-03T02:02:19.149Z,5.10
2022-12-03T02:02:28.462Z,5.10
2022-12-03T02:02:37.881Z,5.10
2022-12-03T02:02:47.284Z,5.20
2022-12-03T02:02:56.704Z,5.10
2022-12-03T02:03:06.112Z,5.10
2022-12-03T02:03:15.533Z,5.10
2022-12-03T02:03:24.951Z,5.10
2022-12-03T02:03:34.383Z,5.10
2022-12-03T02:03:43.869Z,5.10
2022-12-03T02:03:53.279Z,5.10
2022-12-03T02:04:02.717Z,5.10
2022-12-03T02:04:12.121Z,5.10
2022-12-03T02:04:21.550Z,5.10
2022-12-03T02:04:30.935Z,5.10
2022-12-03T02:04:40.282Z,5.10
2022-12-03T02:04:59.123Z,5.00
2022-12-03T02:05:08.511Z,5.00
2022-12-03T02:05:17.936Z,5.00
2022-12-03T02:05:27.329Z,5.00
2022-12-03T02:05:36.740Z,4.90
2022-12-03T02:05:46.135Z,4.90
2022-12-03T02:05:55.529Z,4.90
2022-12-03T02:06:04.965Z,4.90
2022-12-03T02:06:14.360Z,4.90
2022-12-03T02:06:23.776Z,4.80
2022-12-03T02:06:33.244Z,4.80
2022-12-03T02:06:42.660Z,4.80
2022-12-03T02:06:52.070Z,4.80
2022-12-03T02:07:01.455Z,4.70
2022-12-03T02:07:10.886Z,4.70
2022-12-03T02:07:20.309Z,4.70
2022-12-03T02:07:39.139Z,4.70
2022-12-03T02:07:48.604Z,4.60
2022-12-03T02:07:58.034Z,4.60
2022-12-03T02:08:07.349Z,4.60
2022-12-03T02:08:16.862Z,4.60
2022-12-03T02:08:26.185Z,4.50
2022-12-03T02:08:35.639Z,4.50
2022-12-03T02:08:45.097Z,4.50
2022-12-03T02:08:54.520Z,4.50
2022-12-03T02:09:03.932Z,4.40
2022-12-03T02:09:13.326Z,4.40
2022-12-03T02:09:22.723Z,4.40
2022-12-03T02:09:32.126Z,4.40
2022-12-03T02:09:41.509Z,4.40
2022-12-03T02:09:50.911Z,4.40
2022-12-03T02:10:00.316Z,4.30
2022-12-03T02:10:19.121Z,4.30
2022-12-03T02:10:28.510Z,4.30
2022-12-03T02:10:37.926Z,4.30
2022-12-03T02:10:47.312Z,4.30
2022-12-03T02:10:56.694Z,4.20
2022-12-03T02:11:06.087Z,4.20
2022-12-03T02:11:15.476Z,4.20
2022-12-03T02:11:24.883Z,4.20
2022-12-03T02:11:34.305Z,4.20
2022-12-03T02:11:43.674Z,4.20
2022-12-03T02:11:53.097Z,4.10
2022-12-03T02:12:02.515Z,4.10
2022-12-03T02:12:11.923Z,4.10
2022-12-03T02:12:21.315Z,4.10
2022-12-03T02:12:30.682Z,4.10
2022-12-03T02:12:49.517Z,4.00
2022-12-03T02:12:58.941Z,4.00
2022-12-03T02:13:08.366Z,4.00